sensor_id;sensor_type;location;lat;lon;timestamp;P1;durP1;ratioP1;P2;durP2;ratioP2
36799;SDS011;22752;51.960;5.886;2022-07-10T00:01:07;6.68;;;1.67;;
36799;SDS011;22752;51.960;5.886;2022-07-10T00:03:32;4.38;;;1.50;;
36799;SDS011;22752;51.960;5.886;2022-07-10T00:05:58;6.22;;;1.50;;
36799;SDS011;22752;51.960;5.886;2022-07-10T00:08:24;5.30;;;1.48;;
36799;SDS011;22752;51.960;5.886;2022-07-10T00:10:50;5.57;;;1.30;;
36799;SDS011;22752;51.960;5.886;2022-07-10T00:13:15;6.25;;;1.42;;
36799;SDS011;22752;51.960;5.886;2022-07-10T00:15:41;5.70;;;1.45;;
36799;SDS011;22752;51.960;5.886;2022-07-10T00:18:07;11.00;;;1.60;;
36799;SDS011;22752;51.960;5.886;2022-07-10T00:20:32;4.03;;;1.10;;
36799;SDS011;22752;51.960;5.886;2022-07-10T00:22:59;7.22;;;1.27;;
36799;SDS011;22752;51.960;5.886;2022-07-10T00:25:25;4.63;;;1.42;;
36799;SDS011;22752;51.960;5.886;2022-07-10T00:27:50;5.68;;;1.40;;
36799;SDS011;22752;51.960;5.886;2022-07-10T00:30:16;4.93;;;1.48;;
36799;SDS011;22752;51.960;5.886;2022-07-10T00:32:41;4.80;;;1.42;;
36799;SDS011;22752;51.960;5.886;2022-07-10T00:35:07;4.88;;;1.30;;
36799;SDS011;22752;51.960;5.886;2022-07-10T00:37:33;5.57;;;1.30;;
36799;SDS011;22752;51.960;5.886;2022-07-10T00:39:59;4.43;;;1.30;;
36799;SDS011;22752;51.960;5.886;2022-07-10T00:42:25;7.50;;;1.80;;
36799;SDS011;22752;51.960;5.886;2022-07-10T00:44:51;5.32;;;1.50;;
36799;SDS011;22752;51.960;5.886;2022-07-10T00:47:17;6.57;;;1.60;;
36799;SDS011;22752;51.960;5.886;2022-07-10T00:49:44;5.47;;;1.40;;
36799;SDS011;22752;51.960;5.886;2022-07-10T00:52:12;4.93;;;1.50;;
36799;SDS011;22752;51.960;5.886;2022-07-10T00:54:40;4.15;;;1.73;;
36799;SDS011;22752;51.960;5.886;2022-07-10T00:57:09;3.85;;;1.20;;
36799;SDS011;22752;51.960;5.886;2022-07-10T00:59:35;4.50;;;1.50;;
36799;SDS011;22752;51.960;5.886;2022-07-10T01:02:02;3.45;;;1.35;;
36799;SDS011;22752;51.960;5.886;2022-07-10T01:04:29;3.17;;;1.20;;
36799;SDS011;22752;51.960;5.886;2022-07-10T01:06:55;5.63;;;1.77;;
36799;SDS011;22752;51.960;5.886;2022-07-10T01:09:20;5.72;;;1.40;;
36799;SDS011;22752;51.960;5.886;2022-07-10T01:11:46;5.63;;;1.50;;
36799;SDS011;22752;51.960;5.886;2022-07-10T01:14:12;2.83;;;1.17;;
36799;SDS011;22752;51.960;5.886;2022-07-10T01:16:39;6.18;;;1.30;;
36799;SDS011;22752;51.960;5.886;2022-07-10T01:19:05;5.55;;;1.83;;
36799;SDS011;22752;51.960;5.886;2022-07-10T01:21:35;4.85;;;1.60;;
36799;SDS011;22752;51.960;5.886;2022-07-10T01:24:08;6.85;;;1.50;;
36799;SDS011;22752;51.960;5.886;2022-07-10T01:26:35;4.45;;;1.60;;
36799;SDS011;22752;51.960;5.886;2022-07-10T01:29:02;3.88;;;1.50;;
36799;SDS011;22752;51.960;5.886;2022-07-10T01:31:31;4.95;;;1.80;;
36799;SDS011;22752;51.960;5.886;2022-07-10T01:33:58;6.35;;;1.60;;
36799;SDS011;22752;51.960;5.886;2022-07-10T01:36:25;6.80;;;1.40;;
36799;SDS011;22752;51.960;5.886;2022-07-10T01:38:53;5.22;;;1.40;;
36799;SDS011;22752;51.960;5.886;2022-07-10T01:41:20;4.57;;;1.50;;
36799;SDS011;22752;51.960;5.886;2022-07-10T01:43:46;3.58;;;1.58;;
36799;SDS011;22752;51.960;5.886;2022-07-10T01:46:13;3.08;;;1.10;;
36799;SDS011;22752;51.960;5.886;2022-07-10T01:48:39;3.83;;;1.17;;
36799;SDS011;22752;51.960;5.886;2022-07-10T01:51:06;2.30;;;1.23;;
36799;SDS011;22752;51.960;5.886;2022-07-10T01:53:32;7.93;;;1.60;;
36799;SDS011;22752;51.960;5.886;2022-07-10T01:55:59;6.85;;;2.03;;
36799;SDS011;22752;51.960;5.886;2022-07-10T01:58:27;4.28;;;1.30;;
36799;SDS011;22752;51.960;5.886;2022-07-10T02:00:53;4.90;;;1.60;;
36799;SDS011;22752;51.960;5.886;2022-07-10T02:03:19;4.53;;;1.70;;
36799;SDS011;22752;51.960;5.886;2022-07-10T02:06:03;4.88;;;1.42;;
36799;SDS011;22752;51.960;5.886;2022-07-10T02:08:29;4.90;;;1.30;;
36799;SDS011;22752;51.960;5.886;2022-07-10T02:10:54;6.07;;;1.63;;
36799;SDS011;22752;51.960;5.886;2022-07-10T02:13:20;6.05;;;1.85;;
36799;SDS011;22752;51.960;5.886;2022-07-10T02:15:46;4.20;;;1.50;;
36799;SDS011;22752;51.960;5.886;2022-07-10T02:18:12;4.85;;;1.35;;
36799;SDS011;22752;51.960;5.886;2022-07-10T02:20:38;5.55;;;1.55;;
36799;SDS011;22752;51.960;5.886;2022-07-10T02:23:04;5.53;;;1.60;;
36799;SDS011;22752;51.960;5.886;2022-07-10T02:25:31;7.97;;;2.00;;
36799;SDS011;22752;51.960;5.886;2022-07-10T02:27:57;5.85;;;1.63;;
36799;SDS011;22752;51.960;5.886;2022-07-10T02:30:23;6.25;;;1.77;;
36799;SDS011;22752;51.960;5.886;2022-07-10T02:32:49;6.20;;;1.70;;
36799;SDS011;22752;51.960;5.886;2022-07-10T02:35:15;6.68;;;1.73;;
36799;SDS011;22752;51.960;5.886;2022-07-10T02:37:40;5.72;;;1.40;;
36799;SDS011;22752;51.960;5.886;2022-07-10T02:40:06;7.82;;;1.83;;
36799;SDS011;22752;51.960;5.886;2022-07-10T02:42:33;4.80;;;1.70;;
36799;SDS011;22752;51.960;5.886;2022-07-10T02:44:58;3.75;;;1.30;;
36799;SDS011;22752;51.960;5.886;2022-07-10T02:47:24;4.95;;;1.42;;
36799;SDS011;22752;51.960;5.886;2022-07-10T02:49:49;4.88;;;1.63;;
36799;SDS011;22752;51.960;5.886;2022-07-10T02:52:16;7.10;;;1.77;;
36799;SDS011;22752;51.960;5.886;2022-07-10T02:54:42;5.18;;;1.73;;
36799;SDS011;22752;51.960;5.886;2022-07-10T02:57:07;5.22;;;1.60;;
36799;SDS011;22752;51.960;5.886;2022-07-10T02:59:33;7.03;;;1.90;;
36799;SDS011;22752;51.960;5.886;2022-07-10T03:01:59;5.13;;;1.67;;
36799;SDS011;22752;51.960;5.886;2022-07-10T03:04:25;5.78;;;1.85;;
36799;SDS011;22752;51.960;5.886;2022-07-10T03:06:51;8.98;;;2.15;;
36799;SDS011;22752;51.960;5.886;2022-07-10T03:09:17;5.53;;;1.50;;
36799;SDS011;22752;51.960;5.886;2022-07-10T03:11:43;4.68;;;1.42;;
36799;SDS011;22752;51.960;5.886;2022-07-10T03:14:08;6.38;;;1.80;;
36799;SDS011;22752;51.960;5.886;2022-07-10T03:16:34;8.48;;;1.80;;
36799;SDS011;22752;51.960;5.886;2022-07-10T03:18:59;5.88;;;1.98;;
36799;SDS011;22752;51.960;5.886;2022-07-10T03:21:25;4.68;;;1.70;;
36799;SDS011;22752;51.960;5.886;2022-07-10T03:23:51;7.03;;;1.70;;
36799;SDS011;22752;51.960;5.886;2022-07-10T03:26:16;8.43;;;1.77;;
36799;SDS011;22752;51.960;5.886;2022-07-10T03:28:42;5.95;;;1.70;;
36799;SDS011;22752;51.960;5.886;2022-07-10T03:31:07;4.30;;;1.45;;
36799;SDS011;22752;51.960;5.886;2022-07-10T03:33:33;4.50;;;1.70;;
36799;SDS011;22752;51.960;5.886;2022-07-10T03:35:58;4.97;;;1.73;;
36799;SDS011;22752;51.960;5.886;2022-07-10T03:38:26;4.45;;;1.70;;
36799;SDS011;22752;51.960;5.886;2022-07-10T03:40:52;4.07;;;1.63;;
36799;SDS011;22752;51.960;5.886;2022-07-10T03:43:18;5.18;;;1.63;;
36799;SDS011;22752;51.960;5.886;2022-07-10T03:45:43;5.10;;;1.60;;
36799;SDS011;22752;51.960;5.886;2022-07-10T03:48:09;4.43;;;1.30;;
36799;SDS011;22752;51.960;5.886;2022-07-10T03:50:35;6.82;;;1.85;;
36799;SDS011;22752;51.960;5.886;2022-07-10T03:53:00;6.28;;;1.60;;
36799;SDS011;22752;51.960;5.886;2022-07-10T03:55:26;5.82;;;1.50;;
36799;SDS011;22752;51.960;5.886;2022-07-10T03:57:51;7.15;;;1.92;;
36799;SDS011;22752;51.960;5.886;2022-07-10T04:00:22;3.22;;;1.40;;
36799;SDS011;22752;51.960;5.886;2022-07-10T04:02:53;2.63;;;1.27;;
36799;SDS011;22752;51.960;5.886;2022-07-10T04:05:20;6.93;;;1.60;;
36799;SDS011;22752;51.960;5.886;2022-07-10T04:07:46;6.15;;;1.55;;
36799;SDS011;22752;51.960;5.886;2022-07-10T04:10:12;6.00;;;1.50;;
36799;SDS011;22752;51.960;5.886;2022-07-10T04:12:37;6.35;;;1.70;;
36799;SDS011;22752;51.960;5.886;2022-07-10T04:15:03;6.20;;;1.75;;
36799;SDS011;22752;51.960;5.886;2022-07-10T04:17:29;4.28;;;1.50;;
36799;SDS011;22752;51.960;5.886;2022-07-10T04:19:57;6.53;;;1.50;;
36799;SDS011;22752;51.960;5.886;2022-07-10T04:22:23;5.70;;;1.42;;
36799;SDS011;22752;51.960;5.886;2022-07-10T04:24:50;6.28;;;1.70;;
36799;SDS011;22752;51.960;5.886;2022-07-10T04:27:15;6.15;;;1.63;;
36799;SDS011;22752;51.960;5.886;2022-07-10T04:29:42;6.40;;;1.92;;
36799;SDS011;22752;51.960;5.886;2022-07-10T04:32:08;8.75;;;1.88;;
36799;SDS011;22752;51.960;5.886;2022-07-10T04:34:34;5.13;;;1.67;;
36799;SDS011;22752;51.960;5.886;2022-07-10T04:36:59;3.85;;;1.45;;
36799;SDS011;22752;51.960;5.886;2022-07-10T04:39:25;7.63;;;1.45;;
36799;SDS011;22752;51.960;5.886;2022-07-10T04:41:51;4.93;;;1.40;;
36799;SDS011;22752;51.960;5.886;2022-07-10T04:44:17;5.30;;;1.45;;
36799;SDS011;22752;51.960;5.886;2022-07-10T04:46:43;5.10;;;1.25;;
36799;SDS011;22752;51.960;5.886;2022-07-10T04:49:09;5.88;;;1.92;;
36799;SDS011;22752;51.960;5.886;2022-07-10T04:51:34;4.13;;;1.33;;
36799;SDS011;22752;51.960;5.886;2022-07-10T04:54:00;7.70;;;1.80;;
36799;SDS011;22752;51.960;5.886;2022-07-10T04:56:26;7.15;;;1.98;;
36799;SDS011;22752;51.960;5.886;2022-07-10T04:58:52;6.30;;;1.80;;
36799;SDS011;22752;51.960;5.886;2022-07-10T05:01:17;4.90;;;1.90;;
36799;SDS011;22752;51.960;5.886;2022-07-10T05:03:45;5.78;;;1.40;;
36799;SDS011;22752;51.960;5.886;2022-07-10T05:06:10;8.70;;;1.98;;
36799;SDS011;22752;51.960;5.886;2022-07-10T05:08:36;5.70;;;1.80;;
36799;SDS011;22752;51.960;5.886;2022-07-10T05:11:02;7.28;;;1.83;;
36799;SDS011;22752;51.960;5.886;2022-07-10T05:13:27;8.25;;;1.90;;
36799;SDS011;22752;51.960;5.886;2022-07-10T05:15:53;5.75;;;1.60;;
36799;SDS011;22752;51.960;5.886;2022-07-10T05:18:19;4.35;;;1.33;;
36799;SDS011;22752;51.960;5.886;2022-07-10T05:20:51;10.48;;;1.58;;
36799;SDS011;22752;51.960;5.886;2022-07-10T05:23:17;6.78;;;1.95;;
36799;SDS011;22752;51.960;5.886;2022-07-10T05:25:43;9.93;;;1.60;;
36799;SDS011;22752;51.960;5.886;2022-07-10T05:28:08;6.82;;;1.45;;
36799;SDS011;22752;51.960;5.886;2022-07-10T05:30:34;9.40;;;1.73;;
36799;SDS011;22752;51.960;5.886;2022-07-10T05:33:00;8.25;;;1.88;;
36799;SDS011;22752;51.960;5.886;2022-07-10T05:35:26;5.97;;;1.67;;
36799;SDS011;22752;51.960;5.886;2022-07-10T05:38:10;6.15;;;1.60;;
36799;SDS011;22752;51.960;5.886;2022-07-10T05:40:36;10.48;;;2.38;;
36799;SDS011;22752;51.960;5.886;2022-07-10T05:43:03;7.90;;;1.58;;
36799;SDS011;22752;51.960;5.886;2022-07-10T05:45:31;7.00;;;1.65;;
36799;SDS011;22752;51.960;5.886;2022-07-10T05:47:58;6.65;;;1.80;;
36799;SDS011;22752;51.960;5.886;2022-07-10T05:50:24;5.82;;;1.77;;
36799;SDS011;22752;51.960;5.886;2022-07-10T05:52:49;6.22;;;1.45;;
36799;SDS011;22752;51.960;5.886;2022-07-10T05:55:25;6.38;;;1.95;;
36799;SDS011;22752;51.960;5.886;2022-07-10T05:57:53;5.90;;;1.67;;
36799;SDS011;22752;51.960;5.886;2022-07-10T06:00:20;6.85;;;1.77;;
36799;SDS011;22752;51.960;5.886;2022-07-10T06:02:46;10.13;;;1.85;;
36799;SDS011;22752;51.960;5.886;2022-07-10T06:05:12;9.13;;;1.73;;
36799;SDS011;22752;51.960;5.886;2022-07-10T06:07:37;6.95;;;1.67;;
36799;SDS011;22752;51.960;5.886;2022-07-10T06:10:03;9.18;;;1.67;;
36799;SDS011;22752;51.960;5.886;2022-07-10T06:12:30;6.68;;;1.70;;
36799;SDS011;22752;51.960;5.886;2022-07-10T06:14:56;7.68;;;1.88;;
36799;SDS011;22752;51.960;5.886;2022-07-10T06:17:22;8.02;;;1.67;;
36799;SDS011;22752;51.960;5.886;2022-07-10T06:19:47;8.82;;;2.10;;
36799;SDS011;22752;51.960;5.886;2022-07-10T06:22:13;9.95;;;2.00;;
36799;SDS011;22752;51.960;5.886;2022-07-10T06:25:01;7.05;;;1.80;;
36799;SDS011;22752;51.960;5.886;2022-07-10T06:27:30;6.93;;;1.92;;
36799;SDS011;22752;51.960;5.886;2022-07-10T06:29:57;9.77;;;2.22;;
36799;SDS011;22752;51.960;5.886;2022-07-10T06:32:23;11.63;;;2.25;;
36799;SDS011;22752;51.960;5.886;2022-07-10T06:34:49;8.63;;;1.90;;
36799;SDS011;22752;51.960;5.886;2022-07-10T06:37:16;9.40;;;1.80;;
36799;SDS011;22752;51.960;5.886;2022-07-10T06:39:42;5.15;;;1.63;;
36799;SDS011;22752;51.960;5.886;2022-07-10T06:42:07;5.10;;;1.50;;
36799;SDS011;22752;51.960;5.886;2022-07-10T06:44:33;10.73;;;2.30;;
36799;SDS011;22752;51.960;5.886;2022-07-10T06:46:59;5.63;;;1.80;;
36799;SDS011;22752;51.960;5.886;2022-07-10T06:49:43;7.45;;;1.85;;
36799;SDS011;22752;51.960;5.886;2022-07-10T06:52:11;7.22;;;1.80;;
36799;SDS011;22752;51.960;5.886;2022-07-10T06:54:37;7.03;;;1.75;;
36799;SDS011;22752;51.960;5.886;2022-07-10T06:57:03;6.97;;;2.13;;
36799;SDS011;22752;51.960;5.886;2022-07-10T06:59:29;10.38;;;2.13;;
36799;SDS011;22752;51.960;5.886;2022-07-10T07:01:55;9.85;;;2.58;;
36799;SDS011;22752;51.960;5.886;2022-07-10T07:04:20;8.40;;;2.60;;
36799;SDS011;22752;51.960;5.886;2022-07-10T07:06:46;8.20;;;1.90;;
36799;SDS011;22752;51.960;5.886;2022-07-10T07:09:11;9.55;;;2.00;;
36799;SDS011;22752;51.960;5.886;2022-07-10T07:11:37;13.15;;;2.33;;
36799;SDS011;22752;51.960;5.886;2022-07-10T07:14:03;8.27;;;2.10;;
36799;SDS011;22752;51.960;5.886;2022-07-10T07:16:29;7.40;;;1.90;;
36799;SDS011;22752;51.960;5.886;2022-07-10T07:19:06;5.97;;;2.17;;
36799;SDS011;22752;51.960;5.886;2022-07-10T07:21:32;10.93;;;2.22;;
36799;SDS011;22752;51.960;5.886;2022-07-10T07:24:17;9.27;;;2.33;;
36799;SDS011;22752;51.960;5.886;2022-07-10T07:26:45;9.40;;;2.35;;
36799;SDS011;22752;51.960;5.886;2022-07-10T07:29:17;7.80;;;2.33;;
36799;SDS011;22752;51.960;5.886;2022-07-10T07:31:43;8.77;;;2.42;;
36799;SDS011;22752;51.960;5.886;2022-07-10T07:34:09;8.38;;;2.05;;
36799;SDS011;22752;51.960;5.886;2022-07-10T07:36:35;8.00;;;2.08;;
36799;SDS011;22752;51.960;5.886;2022-07-10T07:39:02;7.05;;;1.98;;
36799;SDS011;22752;51.960;5.886;2022-07-10T07:41:28;8.07;;;1.92;;
36799;SDS011;22752;51.960;5.886;2022-07-10T07:43:54;8.13;;;1.85;;
36799;SDS011;22752;51.960;5.886;2022-07-10T07:46:19;7.95;;;2.03;;
36799;SDS011;22752;51.960;5.886;2022-07-10T07:48:46;8.93;;;1.90;;
36799;SDS011;22752;51.960;5.886;2022-07-10T07:51:11;9.57;;;2.03;;
36799;SDS011;22752;51.960;5.886;2022-07-10T07:53:38;6.22;;;2.22;;
36799;SDS011;22752;51.960;5.886;2022-07-10T07:56:06;6.10;;;1.95;;
36799;SDS011;22752;51.960;5.886;2022-07-10T07:58:32;6.75;;;2.08;;
36799;SDS011;22752;51.960;5.886;2022-07-10T08:00:57;8.18;;;2.63;;
36799;SDS011;22752;51.960;5.886;2022-07-10T08:03:23;9.77;;;2.40;;
36799;SDS011;22752;51.960;5.886;2022-07-10T08:05:49;7.82;;;1.90;;
36799;SDS011;22752;51.960;5.886;2022-07-10T08:08:15;9.25;;;2.55;;
36799;SDS011;22752;51.960;5.886;2022-07-10T08:10:40;8.60;;;2.13;;
36799;SDS011;22752;51.960;5.886;2022-07-10T08:13:06;10.02;;;2.10;;
36799;SDS011;22752;51.960;5.886;2022-07-10T08:15:32;9.65;;;2.13;;
36799;SDS011;22752;51.960;5.886;2022-07-10T08:17:59;8.75;;;2.10;;
36799;SDS011;22752;51.960;5.886;2022-07-10T08:20:26;11.18;;;2.20;;
36799;SDS011;22752;51.960;5.886;2022-07-10T08:22:52;9.80;;;2.00;;
36799;SDS011;22752;51.960;5.886;2022-07-10T08:25:21;8.25;;;2.60;;
36799;SDS011;22752;51.960;5.886;2022-07-10T08:27:47;11.43;;;2.28;;
36799;SDS011;22752;51.960;5.886;2022-07-10T08:30:13;8.18;;;2.05;;
36799;SDS011;22752;51.960;5.886;2022-07-10T08:32:39;6.85;;;1.70;;
36799;SDS011;22752;51.960;5.886;2022-07-10T08:35:06;9.63;;;2.00;;
36799;SDS011;22752;51.960;5.886;2022-07-10T08:37:39;7.78;;;1.90;;
36799;SDS011;22752;51.960;5.886;2022-07-10T08:40:10;9.45;;;1.67;;
36799;SDS011;22752;51.960;5.886;2022-07-10T08:42:38;9.40;;;1.90;;
36799;SDS011;22752;51.960;5.886;2022-07-10T08:45:04;8.50;;;1.90;;
36799;SDS011;22752;51.960;5.886;2022-07-10T08:47:33;8.30;;;2.00;;
36799;SDS011;22752;51.960;5.886;2022-07-10T08:50:00;9.23;;;1.98;;
36799;SDS011;22752;51.960;5.886;2022-07-10T08:52:26;3.95;;;1.40;;
36799;SDS011;22752;51.960;5.886;2022-07-10T08:55:03;5.65;;;1.60;;
36799;SDS011;22752;51.960;5.886;2022-07-10T08:57:29;6.35;;;1.65;;
36799;SDS011;22752;51.960;5.886;2022-07-10T08:59:56;8.27;;;2.10;;
36799;SDS011;22752;51.960;5.886;2022-07-10T09:02:22;11.82;;;1.80;;
36799;SDS011;22752;51.960;5.886;2022-07-10T09:04:48;6.03;;;1.98;;
36799;SDS011;22752;51.960;5.886;2022-07-10T09:07:13;7.10;;;2.08;;
36799;SDS011;22752;51.960;5.886;2022-07-10T09:09:50;8.68;;;2.38;;
36799;SDS011;22752;51.960;5.886;2022-07-10T09:12:17;6.88;;;1.60;;
36799;SDS011;22752;51.960;5.886;2022-07-10T09:14:44;5.40;;;1.70;;
36799;SDS011;22752;51.960;5.886;2022-07-10T09:17:09;5.35;;;1.70;;
36799;SDS011;22752;51.960;5.886;2022-07-10T09:19:35;9.15;;;2.03;;
36799;SDS011;22752;51.960;5.886;2022-07-10T09:22:03;3.70;;;1.30;;
36799;SDS011;22752;51.960;5.886;2022-07-10T09:24:40;6.93;;;1.55;;
36799;SDS011;22752;51.960;5.886;2022-07-10T09:27:11;5.68;;;1.50;;
36799;SDS011;22752;51.960;5.886;2022-07-10T09:29:49;4.18;;;1.67;;
36799;SDS011;22752;51.960;5.886;2022-07-10T09:32:22;7.55;;;1.50;;
36799;SDS011;22752;51.960;5.886;2022-07-10T09:34:49;6.40;;;1.58;;
36799;SDS011;22752;51.960;5.886;2022-07-10T09:37:38;6.88;;;1.80;;
36799;SDS011;22752;51.960;5.886;2022-07-10T09:40:06;4.68;;;1.60;;
36799;SDS011;22752;51.960;5.886;2022-07-10T09:42:39;3.55;;;1.30;;
36799;SDS011;22752;51.960;5.886;2022-07-10T09:47:57;6.20;;;1.50;;
36799;SDS011;22752;51.960;5.886;2022-07-10T09:50:34;6.72;;;1.70;;
36799;SDS011;22752;51.960;5.886;2022-07-10T09:53:05;3.08;;;1.30;;
36799;SDS011;22752;51.960;5.886;2022-07-10T09:55:35;4.55;;;1.50;;
36799;SDS011;22752;51.960;5.886;2022-07-10T09:58:05;3.25;;;1.10;;
36799;SDS011;22752;51.960;5.886;2022-07-10T10:00:33;7.40;;;1.40;;
36799;SDS011;22752;51.960;5.886;2022-07-10T10:03:01;5.05;;;1.50;;
36799;SDS011;22752;51.960;5.886;2022-07-10T10:05:35;8.90;;;1.75;;
36799;SDS011;22752;51.960;5.886;2022-07-10T10:08:12;4.20;;;1.58;;
36799;SDS011;22752;51.960;5.886;2022-07-10T10:10:47;4.00;;;1.35;;
36799;SDS011;22752;51.960;5.886;2022-07-10T10:13:18;7.55;;;1.70;;
36799;SDS011;22752;51.960;5.886;2022-07-10T10:15:50;4.47;;;1.37;;
36799;SDS011;22752;51.960;5.886;2022-07-10T10:18:17;3.47;;;1.42;;
36799;SDS011;22752;51.960;5.886;2022-07-10T10:20:47;6.82;;;1.70;;
36799;SDS011;22752;51.960;5.886;2022-07-10T10:23:14;4.95;;;1.50;;
36799;SDS011;22752;51.960;5.886;2022-07-10T10:25:43;4.35;;;1.40;;
36799;SDS011;22752;51.960;5.886;2022-07-10T10:28:09;5.30;;;1.42;;
36799;SDS011;22752;51.960;5.886;2022-07-10T10:30:36;2.13;;;1.25;;
36799;SDS011;22752;51.960;5.886;2022-07-10T10:33:40;3.42;;;1.10;;
36799;SDS011;22752;51.960;5.886;2022-07-10T10:35:57;3.35;;;1.35;;
36799;SDS011;22752;51.960;5.886;2022-07-10T10:38:23;4.07;;;1.30;;
36799;SDS011;22752;51.960;5.886;2022-07-10T10:40:49;3.63;;;1.20;;
36799;SDS011;22752;51.960;5.886;2022-07-10T10:43:15;2.70;;;1.40;;
36799;SDS011;22752;51.960;5.886;2022-07-10T10:45:48;5.95;;;1.25;;
36799;SDS011;22752;51.960;5.886;2022-07-10T10:48:15;4.47;;;1.23;;
36799;SDS011;22752;51.960;5.886;2022-07-10T10:53:12;2.50;;;1.13;;
36799;SDS011;22752;51.960;5.886;2022-07-10T10:55:39;4.05;;;1.30;;
36799;SDS011;22752;51.960;5.886;2022-07-10T10:58:15;3.15;;;1.30;;
36799;SDS011;22752;51.960;5.886;2022-07-10T11:00:43;3.00;;;1.10;;
36799;SDS011;22752;51.960;5.886;2022-07-10T11:03:17;3.05;;;1.20;;
36799;SDS011;22752;51.960;5.886;2022-07-10T11:05:44;2.85;;;1.20;;
36799;SDS011;22752;51.960;5.886;2022-07-10T11:08:11;4.28;;;1.30;;
36799;SDS011;22752;51.960;5.886;2022-07-10T11:10:39;4.70;;;1.40;;
36799;SDS011;22752;51.960;5.886;2022-07-10T11:13:11;4.63;;;1.40;;
36799;SDS011;22752;51.960;5.886;2022-07-10T11:18:10;2.72;;;1.13;;
36799;SDS011;22752;51.960;5.886;2022-07-10T11:20:37;2.67;;;1.25;;
36799;SDS011;22752;51.960;5.886;2022-07-10T11:26:07;1.83;;;1.00;;
36799;SDS011;22752;51.960;5.886;2022-07-10T11:28:52;2.00;;;1.05;;
36799;SDS011;22752;51.960;5.886;2022-07-10T11:31:19;3.88;;;1.08;;
36799;SDS011;22752;51.960;5.886;2022-07-10T11:33:48;3.30;;;1.20;;
36799;SDS011;22752;51.960;5.886;2022-07-10T11:36:19;4.43;;;1.10;;
36799;SDS011;22752;51.960;5.886;2022-07-10T11:38:56;3.20;;;1.17;;
36799;SDS011;22752;51.960;5.886;2022-07-10T11:41:26;3.78;;;1.30;;
36799;SDS011;22752;51.960;5.886;2022-07-10T11:44:02;3.88;;;1.33;;
36799;SDS011;22752;51.960;5.886;2022-07-10T11:46:30;3.08;;;1.10;;
36799;SDS011;22752;51.960;5.886;2022-07-10T11:48:58;5.05;;;1.35;;
36799;SDS011;22752;51.960;5.886;2022-07-10T11:51:29;3.00;;;1.10;;
36799;SDS011;22752;51.960;5.886;2022-07-10T11:54:00;2.15;;;0.93;;
36799;SDS011;22752;51.960;5.886;2022-07-10T11:56:36;2.42;;;1.25;;
36799;SDS011;22752;51.960;5.886;2022-07-10T11:59:05;4.30;;;1.15;;
36799;SDS011;22752;51.960;5.886;2022-07-10T12:01:32;3.22;;;1.20;;
36799;SDS011;22752;51.960;5.886;2022-07-10T12:04:09;3.25;;;1.20;;
36799;SDS011;22752;51.960;5.886;2022-07-10T12:06:36;5.50;;;1.30;;
36799;SDS011;22752;51.960;5.886;2022-07-10T12:09:11;3.00;;;1.38;;
36799;SDS011;22752;51.960;5.886;2022-07-10T12:11:38;1.70;;;1.20;;
36799;SDS011;22752;51.960;5.886;2022-07-10T12:14:18;4.40;;;1.10;;
36799;SDS011;22752;51.960;5.886;2022-07-10T12:16:47;3.15;;;1.30;;
36799;SDS011;22752;51.960;5.886;2022-07-10T12:19:16;4.78;;;1.38;;
36799;SDS011;22752;51.960;5.886;2022-07-10T12:21:44;4.00;;;1.30;;
36799;SDS011;22752;51.960;5.886;2022-07-10T12:24:15;4.32;;;1.80;;
36799;SDS011;22752;51.960;5.886;2022-07-10T12:26:43;4.35;;;1.30;;
36799;SDS011;22752;51.960;5.886;2022-07-10T12:29:22;3.35;;;1.33;;
36799;SDS011;22752;51.960;5.886;2022-07-10T12:31:53;4.22;;;1.48;;
36799;SDS011;22752;51.960;5.886;2022-07-10T12:34:35;4.15;;;1.17;;
36799;SDS011;22752;51.960;5.886;2022-07-10T12:37:09;3.38;;;1.70;;
36799;SDS011;22752;51.960;5.886;2022-07-10T12:39:46;5.65;;;1.40;;
36799;SDS011;22752;51.960;5.886;2022-07-10T12:42:23;5.18;;;1.20;;
36799;SDS011;22752;51.960;5.886;2022-07-10T12:44:50;2.95;;;1.00;;
36799;SDS011;22752;51.960;5.886;2022-07-10T12:47:16;4.07;;;1.02;;
36799;SDS011;22752;51.960;5.886;2022-07-10T12:49:51;4.72;;;1.35;;
36799;SDS011;22752;51.960;5.886;2022-07-10T12:52:30;3.00;;;1.20;;
36799;SDS011;22752;51.960;5.886;2022-07-10T12:55:10;5.43;;;1.40;;
36799;SDS011;22752;51.960;5.886;2022-07-10T13:00:23;4.45;;;1.10;;
36799;SDS011;22752;51.960;5.886;2022-07-10T13:03:23;3.70;;;0.90;;
36799;SDS011;22752;51.960;5.886;2022-07-10T13:05:47;5.70;;;1.52;;
36799;SDS011;22752;51.960;5.886;2022-07-10T13:08:20;3.28;;;1.20;;
36799;SDS011;22752;51.960;5.886;2022-07-10T13:10:49;4.10;;;1.27;;
36799;SDS011;22752;51.960;5.886;2022-07-10T13:13:16;5.57;;;1.40;;
36799;SDS011;22752;51.960;5.886;2022-07-10T13:15:42;4.10;;;1.20;;
36799;SDS011;22752;51.960;5.886;2022-07-10T13:18:19;5.15;;;2.10;;
36799;SDS011;22752;51.960;5.886;2022-07-10T13:20:46;2.55;;;1.23;;
36799;SDS011;22752;51.960;5.886;2022-07-10T13:23:13;5.07;;;1.45;;
36799;SDS011;22752;51.960;5.886;2022-07-10T13:25:39;2.67;;;1.30;;
36799;SDS011;22752;51.960;5.886;2022-07-10T13:28:08;2.53;;;1.02;;
36799;SDS011;22752;51.960;5.886;2022-07-10T13:30:36;4.35;;;1.67;;
36799;SDS011;22752;51.960;5.886;2022-07-10T13:33:02;4.00;;;1.50;;
36799;SDS011;22752;51.960;5.886;2022-07-10T13:35:28;2.78;;;1.42;;
36799;SDS011;22752;51.960;5.886;2022-07-10T13:37:54;2.35;;;1.23;;
36799;SDS011;22752;51.960;5.886;2022-07-10T13:40:27;4.85;;;1.42;;
36799;SDS011;22752;51.960;5.886;2022-07-10T13:42:59;3.17;;;1.40;;
36799;SDS011;22752;51.960;5.886;2022-07-10T13:45:25;1.92;;;1.00;;
36799;SDS011;22752;51.960;5.886;2022-07-10T13:47:55;4.22;;;1.27;;
36799;SDS011;22752;51.960;5.886;2022-07-10T13:50:21;2.95;;;0.98;;
36799;SDS011;22752;51.960;5.886;2022-07-10T13:52:47;4.68;;;1.30;;
36799;SDS011;22752;51.960;5.886;2022-07-10T13:55:13;5.35;;;1.38;;
36799;SDS011;22752;51.960;5.886;2022-07-10T13:57:39;2.25;;;1.15;;
36799;SDS011;22752;51.960;5.886;2022-07-10T14:00:05;2.92;;;1.15;;
36799;SDS011;22752;51.960;5.886;2022-07-10T14:02:31;3.13;;;1.00;;
36799;SDS011;22752;51.960;5.886;2022-07-10T14:04:57;2.42;;;1.10;;
36799;SDS011;22752;51.960;5.886;2022-07-10T14:07:22;6.35;;;1.55;;
36799;SDS011;22752;51.960;5.886;2022-07-10T14:09:48;3.58;;;1.23;;
36799;SDS011;22752;51.960;5.886;2022-07-10T14:12:14;3.17;;;1.33;;
36799;SDS011;22752;51.960;5.886;2022-07-10T14:14:39;3.35;;;1.38;;
36799;SDS011;22752;51.960;5.886;2022-07-10T14:17:05;3.78;;;1.30;;
36799;SDS011;22752;51.960;5.886;2022-07-10T14:19:31;4.13;;;1.30;;
36799;SDS011;22752;51.960;5.886;2022-07-10T14:21:57;2.85;;;1.20;;
36799;SDS011;22752;51.960;5.886;2022-07-10T14:24:24;7.80;;;1.13;;
36799;SDS011;22752;51.960;5.886;2022-07-10T14:26:50;5.07;;;1.63;;
36799;SDS011;22752;51.960;5.886;2022-07-10T14:29:17;2.63;;;1.23;;
36799;SDS011;22752;51.960;5.886;2022-07-10T14:31:44;2.17;;;1.00;;
36799;SDS011;22752;51.960;5.886;2022-07-10T14:34:12;3.53;;;1.15;;
36799;SDS011;22752;51.960;5.886;2022-07-10T14:36:38;2.72;;;1.13;;
36799;SDS011;22752;51.960;5.886;2022-07-10T14:39:04;3.55;;;1.30;;
36799;SDS011;22752;51.960;5.886;2022-07-10T14:41:30;3.05;;;1.10;;
36799;SDS011;22752;51.960;5.886;2022-07-10T14:43:55;2.40;;;1.10;;
36799;SDS011;22752;51.960;5.886;2022-07-10T14:46:21;3.15;;;1.27;;
36799;SDS011;22752;51.960;5.886;2022-07-10T14:48:47;2.47;;;1.23;;
36799;SDS011;22752;51.960;5.886;2022-07-10T14:51:12;5.13;;;1.35;;
36799;SDS011;22752;51.960;5.886;2022-07-10T14:53:38;2.72;;;1.00;;
36799;SDS011;22752;51.960;5.886;2022-07-10T14:56:06;2.45;;;1.20;;
36799;SDS011;22752;51.960;5.886;2022-07-10T14:58:33;2.55;;;1.17;;
36799;SDS011;22752;51.960;5.886;2022-07-10T15:00:58;3.22;;;1.40;;
36799;SDS011;22752;51.960;5.886;2022-07-10T15:03:25;5.45;;;1.55;;
36799;SDS011;22752;51.960;5.886;2022-07-10T15:05:51;3.88;;;1.20;;